createdAt,value
2023-04-04T00:00:15.620Z,4.53
2023-04-04T00:02:41.979Z,4.51
2023-04-04T00:05:09.580Z,4.48
2023-04-04T00:07:36.212Z,4.47
2023-04-04T00:10:02.554Z,4.44
2023-04-04T00:12:29.902Z,4.40
2023-04-04T00:14:57.406Z,4.38
2023-04-04T00:17:23.850Z,4.35
2023-04-04T00:19:50.520Z,4.33
2023-04-04T00:22:18.081Z,4.31
2023-04-04T00:24:44.448Z,4.29
2023-04-04T00:27:10.775Z,4.26
2023-04-04T00:29:37.329Z,4.24
2023-04-04T00:32:04.096Z,4.21
2023-04-04T00:34:30.434Z,4.18
2023-04-04T00:36:56.755Z,4.16
2023-04-04T00:39:23.775Z,4.14
2023-04-04T00:41:50.340Z,4.10
2023-04-04T00:44:17.028Z,4.07
2023-04-04T00:46:43.611Z,4.03
2023-04-04T00:49:10.341Z,4.01
2023-04-04T00:51:36.670Z,3.97
2023-04-04T00:54:03.470Z,3.94
2023-04-04T00:56:32.993Z,3.91
2023-04-04T00:59:00.821Z,3.90
2023-04-04T01:01:27.431Z,3.87
2023-04-04T01:03:54.082Z,3.84
2023-04-04T01:06:20.744Z,3.83
2023-04-04T01:08:47.368Z,3.82
2023-04-04T01:11:14.605Z,3.81
2023-04-04T01:13:43.020Z,3.79
2023-04-04T01:16:09.392Z,3.77
2023-04-04T01:18:36.810Z,3.75
2023-04-04T01:21:10.575Z,3.73
2023-04-04T01:23:49.774Z,3.69
2023-04-04T01:26:16.195Z,3.67
2023-04-04T01:28:42.567Z,3.64
2023-04-04T01:31:12.680Z,3.63
2023-04-04T01:33:45.255Z,3.62
2023-04-04T01:36:11.646Z,3.59
2023-04-04T01:38:47.140Z,3.58
2023-04-04T01:41:15.144Z,3.56
2023-04-04T01:43:45.561Z,3.54
2023-04-04T01:46:12.753Z,3.51
2023-04-04T01:48:39.122Z,3.50
2023-04-04T01:51:06.457Z,3.47
2023-04-04T01:53:32.778Z,3.45
2023-04-04T01:55:59.541Z,3.45
2023-04-04T01:58:26.634Z,3.42
2023-04-04T02:00:52.997Z,3.41
2023-04-04T02:03:19.329Z,3.39
2023-04-04T02:05:46.314Z,3.38
2023-04-04T02:08:13.194Z,3.36
2023-04-04T02:10:39.814Z,3.34
2023-04-04T02:13:06.809Z,3.33
2023-04-04T02:15:36.598Z,3.30
2023-04-04T02:18:03.439Z,3.27
2023-04-04T02:20:29.859Z,3.24
2023-04-04T02:22:56.880Z,3.23
2023-04-04T02:25:24.580Z,3.21
2023-04-04T02:27:51.408Z,3.18
2023-04-04T02:30:19.412Z,3.16
2023-04-04T02:32:47.078Z,3.14
2023-04-04T02:35:13.547Z,3.13
2023-04-04T02:37:39.913Z,3.08
2023-04-04T02:40:07.237Z,3.06
2023-04-04T02:42:33.579Z,3.04
2023-04-04T02:44:59.910Z,3.02
2023-04-04T02:47:26.652Z,3.00
2023-04-04T02:49:53.024Z,2.99
2023-04-04T02:52:21.080Z,2.97
2023-04-04T02:54:47.774Z,2.95
2023-04-04T02:57:14.197Z,2.93
2023-04-04T02:59:40.532Z,2.91
2023-04-04T03:02:07.187Z,2.90
2023-04-04T03:04:33.598Z,2.89
2023-04-04T03:06:59.995Z,2.86
2023-04-04T03:09:26.312Z,2.84
2023-04-04T03:11:52.698Z,2.81
2023-04-04T03:14:19.021Z,2.78
2023-04-04T03:16:45.499Z,2.75
2023-04-04T03:19:12.008Z,2.72
2023-04-04T03:21:38.428Z,2.68
2023-04-04T03:24:04.895Z,2.63
2023-04-04T03:26:31.230Z,2.60
2023-04-04T03:28:57.621Z,2.56
2023-04-04T03:31:24.011Z,2.52
2023-04-04T03:33:50.384Z,2.49
2023-04-04T03:36:16.727Z,2.46
2023-04-04T03:38:43.182Z,2.41
2023-04-04T03:41:09.622Z,2.38
2023-04-04T03:43:36.018Z,2.35
2023-04-04T03:46:04.246Z,2.32
2023-04-04T03:48:31.607Z,2.30
2023-04-04T03:50:58.476Z,2.28
2023-04-04T03:53:25.546Z,2.25
2023-04-04T03:55:52.829Z,2.24
2023-04-04T03:58:19.663Z,2.23
2023-04-04T04:00:46.171Z,2.21
2023-04-04T04:03:14.724Z,2.20
2023-04-04T04:05:42.304Z,2.19
2023-04-04T04:08:08.648Z,2.17
2023-04-04T04:10:35.659Z,2.16
2023-04-04T04:13:02.844Z,2.15
2023-04-04T04:15:29.236Z,2.13
2023-04-04T04:17:55.665Z,2.12
2023-04-04T04:20:22.426Z,2.11
2023-04-04T04:22:49.065Z,2.10
2023-04-04T04:25:16.336Z,2.07
2023-04-04T04:27:42.756Z,2.07
2023-04-04T04:30:09.919Z,2.05
2023-04-04T04:32:36.384Z,2.05
2023-04-04T04:35:03.108Z,2.03
2023-04-04T04:37:29.428Z,2.01
2023-04-04T04:39:56.038Z,2.01
2023-04-04T04:42:22.496Z,1.99
2023-04-04T04:44:48.941Z,1.97
2023-04-04T04:47:15.356Z,1.94
2023-04-04T04:49:43.436Z,1.92
2023-04-04T04:52:09.939Z,1.92
2023-04-04T04:54:36.336Z,1.90
2023-04-04T04:57:02.776Z,1.88
2023-04-04T04:59:29.488Z,1.86
2023-04-04T05:01:56.075Z,1.85
2023-04-04T05:04:22.460Z,1.83
2023-04-04T05:06:49.040Z,1.82
2023-04-04T05:09:15.414Z,1.82
2023-04-04T05:11:41.931Z,1.78
2023-04-04T05:14:08.288Z,1.77
2023-04-04T05:16:34.729Z,1.75
2023-04-04T05:19:01.144Z,1.74
2023-04-04T05:21:27.946Z,1.73
2023-04-04T05:23:55.118Z,1.73
2023-04-04T05:26:21.454Z,1.72
2023-04-04T05:28:47.845Z,1.72
2023-04-04T05:31:14.305Z,1.71
2023-04-04T05:33:40.898Z,1.71
2023-04-04T05:36:07.414Z,1.71
2023-04-04T05:38:33.811Z,1.72
2023-04-04T05:41:00.191Z,1.72
2023-04-04T05:43:27.047Z,1.73
2023-04-04T05:45:53.452Z,1.74
2023-04-04T05:48:19.808Z,1.77
2023-04-04T05:50:47.180Z,1.80
2023-04-04T05:53:13.521Z,1.84
2023-04-04T05:55:39.874Z,1.88
2023-04-04T05:58:06.292Z,1.91
2023-04-04T06:00:32.672Z,1.96
2023-04-04T06:02:59.223Z,2.01
2023-04-04T06:05:25.696Z,2.06
2023-04-04T06:07:52.024Z,2.11
2023-04-04T06:10:18.475Z,2.16
2023-04-04T06:12:44.813Z,2.20
2023-04-04T06:15:11.331Z,2.28
2023-04-04T06:17:37.853Z,2.34
2023-04-04T06:20:05.095Z,2.39
2023-04-04T06:22:31.905Z,2.47
2023-04-04T06:24:58.287Z,2.53
2023-04-04T06:27:24.708Z,2.60
2023-04-04T06:29:51.064Z,2.67
2023-04-04T06:32:17.636Z,2.74
2023-04-04T06:34:44.097Z,2.81
2023-04-04T06:37:10.439Z,2.89
2023-04-04T06:39:37.316Z,2.97
2023-04-04T06:42:04.001Z,3.06
2023-04-04T06:44:30.466Z,3.18
2023-04-04T06:46:57.000Z,3.28
2023-04-04T06:49:23.404Z,3.39
2023-04-04T06:51:50.861Z,3.48
2023-04-04T06:54:17.332Z,3.59
2023-04-04T06:56:43.891Z,3.71
2023-04-04T06:59:12.522Z,3.82
2023-04-04T07:01:38.996Z,3.93
2023-04-04T07:04:05.370Z,4.06
2023-04-04T07:06:31.932Z,4.18
2023-04-04T07:08:58.321Z,4.30
2023-04-04T07:11:24.776Z,4.43
2023-04-04T07:13:51.176Z,4.56
2023-04-04T07:16:17.531Z,4.70
2023-04-04T07:18:44.275Z,4.82
2023-04-04T07:21:10.657Z,4.93
2023-04-04T07:23:37.276Z,5.06
2023-04-04T07:26:03.624Z,5.16
2023-04-04T07:28:30.066Z,5.27
2023-04-04T07:30:59.441Z,5.36
2023-04-04T07:33:25.879Z,5.44
2023-04-04T07:35:53.244Z,5.52
2023-04-04T07:38:19.616Z,5.58
2023-04-04T07:40:48.108Z,5.64
2023-04-04T07:43:14.687Z,5.67
2023-04-04T07:45:41.239Z,5.71
2023-04-04T07:48:07.882Z,5.77
2023-04-04T07:50:34.349Z,5.84
2023-04-04T07:53:00.717Z,5.89
2023-04-04T07:55:27.185Z,5.96
2023-04-04T07:57:54.528Z,6.04
2023-04-04T08:00:22.604Z,6.13
2023-04-04T08:02:53.766Z,6.23
2023-04-04T08:05:20.743Z,6.29
2023-04-04T08:07:47.332Z,6.37
2023-04-04T08:10:13.880Z,6.46
2023-04-04T08:12:40.708Z,6.55
2023-04-04T08:15:07.437Z,6.65
2023-04-04T08:17:34.108Z,6.74
2023-04-04T08:20:00.500Z,6.83
2023-04-04T08:22:27.062Z,6.92
2023-04-04T08:24:53.415Z,7.01
2023-04-04T08:27:19.789Z,7.11
2023-04-04T08:29:47.963Z,7.18
2023-04-04T08:32:15.016Z,7.28
2023-04-04T08:34:41.533Z,7.34
2023-04-04T08:37:08.499Z,7.42
2023-04-04T08:39:34.868Z,7.48
2023-04-04T08:42:03.524Z,7.55
2023-04-04T08:44:30.734Z,7.61
2023-04-04T08:47:03.343Z,7.67
2023-04-04T08:49:32.041Z,7.72
2023-04-04T08:52:00.054Z,7.78
2023-04-04T08:54:28.674Z,7.85
2023-04-04T08:56:55.103Z,7.91
2023-04-04T08:59:21.721Z,8.01
2023-04-04T09:01:48.307Z,8.08
2023-04-04T09:04:15.697Z,8.15
2023-04-04T09:06:42.049Z,8.22
2023-04-04T09:09:08.636Z,8.27
2023-04-04T09:11:38.899Z,8.33
2023-04-04T09:14:05.441Z,8.39
2023-04-04T09:16:32.013Z,8.42
2023-04-04T09:18:58.421Z,8.46
2023-04-04T09:21:24.761Z,8.48
2023-04-04T09:24:02.334Z,8.54
2023-04-04T09:26:28.856Z,8.57
2023-04-04T09:28:56.058Z,8.65
2023-04-04T09:31:24.428Z,8.72
2023-04-04T09:33:51.177Z,8.78
2023-04-04T09:36:18.644Z,8.86
2023-04-04T09:38:49.197Z,8.93
2023-04-04T09:41:16.629Z,8.98
2023-04-04T09:43:45.502Z,9.04
2023-04-04T09:46:12.078Z,9.09
2023-04-04T09:48:38.544Z,9.13
2023-04-04T09:51:06.967Z,9.18
2023-04-04T09:53:35.803Z,9.25
2023-04-04T09:56:02.945Z,9.29
2023-04-04T09:58:31.907Z,9.33
2023-04-04T10:01:03.494Z,9.37
2023-04-04T10:03:31.041Z,9.38
2023-04-04T10:06:03.790Z,9.41
2023-04-04T10:08:32.252Z,9.45
2023-04-04T10:11:11.034Z,9.53
2023-04-04T10:13:44.139Z,9.60
2023-04-04T10:16:13.758Z,9.68
2023-04-04T10:18:40.372Z,9.74
2023-04-04T10:23:38.826Z,9.84
2023-04-04T10:26:05.972Z,9.90
2023-04-04T10:28:32.651Z,9.94
2023-04-04T10:31:22.784Z,9.99
2023-04-04T10:34:15.266Z,10.05
2023-04-04T10:36:47.076Z,10.11
2023-04-04T10:39:24.879Z,10.18
2023-04-04T10:41:52.673Z,10.27
2023-04-04T10:44:33.371Z,10.39
2023-04-04T10:47:06.792Z,10.54
2023-04-04T10:49:34.172Z,10.67
2023-04-04T10:52:01.354Z,10.79
2023-04-04T10:54:29.304Z,10.90
2023-04-04T10:57:00.838Z,11.01
2023-04-04T10:59:28.171Z,11.06
2023-04-04T11:01:58.123Z,11.14
2023-04-04T11:04:37.723Z,11.19
2023-04-04T11:07:16.348Z,11.22
2023-04-04T11:09:49.621Z,11.23
2023-04-04T11:12:21.610Z,11.24
2023-04-04T11:15:00.463Z,11.26
2023-04-04T11:17:48.767Z,11.27
2023-04-04T11:20:18.564Z,11.27
2023-04-04T11:22:45.829Z,11.27
2023-04-04T11:25:24.819Z,11.31
2023-04-04T11:27:54.997Z,11.38
2023-04-04T11:30:21.617Z,11.48
2023-04-04T11:32:59.715Z,11.59
2023-04-04T11:35:30.541Z,11.74
2023-04-04T11:37:56.943Z,11.85
2023-04-04T11:40:42.821Z,11.94
2023-04-04T11:43:10.990Z,11.98
2023-04-04T11:45:43.577Z,12.01
2023-04-04T11:48:10.545Z,12.03
2023-04-04T11:50:39.637Z,12.07
2023-04-04T11:53:08.179Z,12.10
2023-04-04T11:55:42.672Z,12.16
2023-04-04T11:58:13.050Z,12.21
2023-04-04T12:00:41.308Z,12.25
2023-04-04T12:03:12.372Z,12.29
2023-04-04T12:05:40.864Z,12.33
2023-04-04T12:08:09.721Z,12.36
2023-04-04T12:10:37.763Z,12.38
2023-04-04T12:13:09.372Z,12.42
2023-04-04T12:15:37.187Z,12.44
2023-04-04T12:18:08.195Z,12.52
2023-04-04T12:20:38.187Z,12.59
2023-04-04T12:23:04.798Z,12.65
2023-04-04T12:25:33.944Z,12.70
2023-04-04T12:28:02.549Z,12.78
2023-04-04T12:30:29.526Z,12.86
2023-04-04T12:32:56.482Z,12.91
2023-04-04T12:35:23.007Z,12.96
2023-04-04T12:37:59.559Z,13.04
2023-04-04T12:40:29.688Z,13.13
2023-04-04T12:42:57.062Z,13.22
2023-04-04T12:45:26.674Z,13.32
2023-04-04T12:47:54.919Z,13.38
2023-04-04T12:50:28.435Z,13.39
2023-04-04T12:53:00.265Z,13.36
2023-04-04T12:55:35.238Z,13.31
2023-04-04T12:58:02.582Z,13.29
2023-04-04T13:00:29.513Z,13.28
2023-04-04T13:02:56.453Z,13.30
2023-04-04T13:05:25.721Z,13.33
2023-04-04T13:08:08.789Z,13.34
2023-04-04T13:11:05.143Z,13.33
2023-04-04T13:13:36.721Z,13.27
2023-04-04T13:16:06.234Z,13.22
2023-04-04T13:18:37.543Z,13.15
2023-04-04T13:21:08.012Z,13.08
2023-04-04T13:23:37.534Z,13.03
2023-04-04T13:26:08.831Z,12.98
2023-04-04T13:28:35.479Z,12.92
2023-04-04T13:31:03.791Z,12.89
2023-04-04T13:33:30.467Z,12.87
2023-04-04T13:35:57.717Z,12.86
2023-04-04T13:38:25.873Z,12.89
2023-04-04T13:40:54.217Z,12.92
2023-04-04T13:43:20.840Z,12.94
2023-04-04T13:45:49.003Z,12.96
2023-04-04T13:48:17.274Z,12.99
2023-04-04T13:50:50.875Z,13.04
2023-04-04T13:53:18.845Z,13.08
2023-04-04T13:55:57.339Z,13.11
2023-04-04T13:58:28.436Z,13.12
2023-04-04T14:00:54.830Z,13.12
2023-04-04T14:03:21.516Z,13.15
2023-04-04T14:05:48.025Z,13.16
2023-04-04T14:08:14.610Z,13.18
2023-04-04T14:10:41.025Z,13.20
2023-04-04T14:13:07.562Z,13.22
2023-04-04T14:15:34.067Z,13.24
2023-04-04T14:18:00.787Z,13.27
2023-04-04T14:20:27.376Z,13.29
2023-04-04T14:22:53.770Z,13.32
2023-04-04T14:25:20.231Z,13.32
2023-04-04T14:27:46.660Z,13.33
2023-04-04T14:30:13.404Z,13.32
2023-04-04T14:32:39.866Z,13.33
2023-04-04T14:35:06.575Z,13.35
2023-04-04T14:37:32.907Z,13.38
2023-04-04T14:39:59.293Z,13.41
2023-04-04T14:42:25.757Z,13.41
2023-04-04T14:44:52.116Z,13.39
2023-04-04T14:47:18.594Z,13.38
2023-04-04T14:49:44.977Z,13.35
2023-04-04T14:52:11.424Z,13.33
2023-04-04T14:54:37.783Z,13.31
2023-04-04T14:57:04.152Z,13.24
2023-04-04T14:59:32.068Z,13.17
2023-04-04T15:01:58.483Z,13.10
2023-04-04T15:04:24.986Z,13.07
2023-04-04T15:06:51.565Z,13.05
2023-04-04T15:09:17.889Z,13.04
2023-04-04T15:11:44.329Z,13.04
2023-04-04T15:14:10.796Z,13.03
2023-04-04T15:16:38.133Z,13.02
2023-04-04T15:19:04.550Z,13.02
2023-04-04T15:21:31.629Z,13.01
2023-04-04T15:23:58.027Z,13.03
2023-04-04T15:26:24.460Z,13.08
2023-04-04T15:28:50.863Z,13.13
2023-04-04T15:31:17.337Z,13.15
2023-04-04T15:33:43.802Z,13.20
2023-04-04T15:36:10.487Z,13.17
2023-04-04T15:38:36.939Z,13.14
2023-04-04T15:41:08.714Z,13.11
2023-04-04T15:43:36.957Z,13.06
2023-04-04T15:46:03.457Z,13.04
2023-04-04T15:48:29.959Z,13.01
2023-04-04T15:51:00.534Z,12.97
2023-04-04T15:53:26.924Z,12.90
2023-04-04T15:55:53.344Z,12.85
2023-04-04T15:58:19.696Z,12.79
2023-04-04T16:00:47.425Z,12.73
2023-04-04T16:03:14.197Z,12.66
2023-04-04T16:05:41.433Z,12.60
2023-04-04T16:08:07.872Z,12.52
2023-04-04T16:10:34.389Z,12.44
2023-04-04T16:13:00.858Z,12.35
2023-04-04T16:15:27.309Z,12.26
2023-04-04T16:17:56.111Z,12.21
2023-04-04T16:20:22.622Z,12.17
2023-04-04T16:22:49.020Z,12.11
2023-04-04T16:25:15.571Z,12.06
2023-04-04T16:27:41.952Z,11.99
2023-04-04T16:30:08.942Z,11.92
2023-04-04T16:32:35.498Z,11.86
2023-04-04T16:35:02.008Z,11.81
2023-04-04T16:37:28.372Z,11.74
2023-04-04T16:39:56.454Z,11.69
2023-04-04T16:42:22.956Z,11.65
2023-04-04T16:44:49.451Z,11.59
2023-04-04T16:47:15.924Z,11.54
2023-04-04T16:49:42.459Z,11.49
2023-04-04T16:52:10.595Z,11.46
2023-04-04T16:54:40.158Z,11.42
2023-04-04T16:57:07.301Z,11.39
2023-04-04T16:59:37.064Z,11.34
2023-04-04T17:02:08.245Z,11.32
2023-04-04T17:04:34.999Z,11.28
2023-04-04T17:07:02.381Z,11.26
2023-04-04T17:09:28.811Z,11.21
2023-04-04T17:11:57.198Z,11.18
2023-04-04T17:14:25.562Z,11.14
2023-04-04T17:16:53.222Z,11.10
2023-04-04T17:19:19.744Z,11.04
2023-04-04T17:21:46.917Z,10.99
2023-04-04T17:24:13.469Z,10.96
2023-04-04T17:26:39.909Z,10.91
2023-04-04T17:29:06.604Z,10.88
2023-04-04T17:31:33.321Z,10.85
2023-04-04T17:33:59.902Z,10.82
2023-04-04T17:36:27.080Z,10.77
2023-04-04T17:38:53.674Z,10.77
2023-04-04T17:41:20.422Z,10.74
2023-04-04T17:43:46.770Z,10.72
2023-04-04T17:46:13.150Z,10.68
2023-04-04T17:48:39.626Z,10.63
2023-04-04T17:51:09.148Z,10.58
2023-04-04T17:53:35.893Z,10.53
2023-04-04T17:56:05.367Z,10.50
2023-04-04T17:58:32.021Z,10.45
2023-04-04T18:01:01.535Z,10.42
2023-04-04T18:03:28.027Z,10.38
2023-04-04T18:05:54.605Z,10.35
2023-04-04T18:08:22.586Z,10.30
2023-04-04T18:10:50.021Z,10.28
2023-04-04T18:13:16.601Z,10.24
2023-04-04T18:15:43.145Z,10.22
2023-04-04T18:18:09.863Z,10.18
2023-04-04T18:20:36.750Z,10.16
2023-04-04T18:23:04.294Z,10.11
2023-04-04T18:25:31.656Z,10.09
2023-04-04T18:27:58.127Z,10.06
2023-04-04T18:30:24.480Z,10.02
2023-04-04T18:32:51.164Z,10.00
2023-04-04T18:35:17.652Z,9.96
2023-04-04T18:37:44.083Z,9.95
2023-04-04T18:40:10.823Z,9.91
2023-04-04T18:42:37.272Z,9.88
2023-04-04T18:45:04.121Z,9.87
2023-04-04T18:47:30.538Z,9.83
2023-04-04T18:49:56.891Z,9.81
2023-04-04T18:52:23.221Z,9.78
2023-04-04T18:54:50.097Z,9.75
2023-04-04T18:57:16.723Z,9.73
2023-04-04T18:59:43.072Z,9.71
2023-04-04T19:02:09.464Z,9.69
2023-04-04T19:04:36.032Z,9.68
2023-04-04T19:07:09.053Z,9.66
2023-04-04T19:09:36.443Z,9.64
2023-04-04T19:12:03.711Z,9.61
2023-04-04T19:14:30.177Z,9.59
2023-04-04T19:16:56.589Z,9.57
2023-04-04T19:19:23.005Z,9.55
2023-04-04T19:21:49.401Z,9.55
2023-04-04T19:24:16.202Z,9.52
2023-04-04T19:26:43.360Z,9.52
2023-04-04T19:29:09.763Z,9.51
2023-04-04T19:31:36.164Z,9.51
2023-04-04T19:34:03.720Z,9.50
2023-04-04T19:36:35.672Z,9.48
2023-04-04T19:39:02.039Z,9.47
2023-04-04T19:41:36.058Z,9.46
2023-04-04T19:44:03.233Z,9.44
2023-04-04T19:46:32.818Z,9.43
2023-04-04T19:49:12.707Z,9.42
2023-04-04T19:51:41.356Z,9.41
2023-04-04T19:54:12.087Z,9.38
2023-04-04T19:56:38.754Z,9.37
2023-04-04T19:59:08.119Z,9.35
2023-04-04T20:01:39.018Z,9.34
2023-04-04T20:04:08.945Z,9.32
2023-04-04T20:06:36.954Z,9.30
2023-04-04T20:09:09.269Z,9.28
2023-04-04T20:11:36.584Z,9.25
2023-04-04T20:14:08.445Z,9.25
2023-04-04T20:16:35.940Z,9.20
2023-04-04T20:19:06.008Z,9.17
2023-04-04T20:21:35.680Z,9.16
2023-04-04T20:24:08.000Z,9.14
2023-04-04T20:26:51.417Z,9.13
2023-04-04T20:29:21.867Z,9.11
2023-04-04T20:31:55.792Z,9.10
2023-04-04T20:34:42.381Z,9.06
2023-04-04T20:37:14.799Z,9.04
2023-04-04T20:39:45.694Z,9.01
2023-04-04T20:42:35.080Z,8.96
2023-04-04T20:45:11.128Z,8.92
2023-04-04T20:47:43.360Z,8.88
2023-04-04T20:50:16.035Z,8.82
2023-04-04T20:52:46.616Z,8.76
2023-04-04T20:55:13.374Z,8.71
2023-04-04T20:57:39.885Z,8.64
2023-04-04T21:00:38.742Z,8.60
2023-04-04T21:03:26.018Z,8.56
2023-04-04T21:05:54.532Z,8.51
2023-04-04T21:08:24.125Z,8.48
2023-04-04T21:10:52.309Z,8.43
2023-04-04T21:13:26.500Z,8.39
2023-04-04T21:15:59.567Z,8.34
2023-04-04T21:18:28.728Z,8.30
2023-04-04T21:21:07.367Z,8.26
2023-04-04T21:23:40.300Z,8.24
2023-04-04T21:26:18.011Z,8.22
2023-04-04T21:28:45.464Z,8.21
2023-04-04T21:31:14.082Z,8.20
2023-04-04T21:33:47.996Z,8.18
2023-04-04T21:36:27.465Z,8.18
2023-04-04T21:38:55.992Z,8.16
2023-04-04T21:41:29.378Z,8.14
2023-04-04T21:43:57.936Z,8.13
2023-04-04T21:46:28.772Z,8.11
2023-04-04T21:48:56.075Z,8.08
2023-04-04T21:51:22.737Z,8.04
2023-04-04T21:53:50.494Z,8.00
2023-04-04T21:56:17.614Z,7.95
2023-04-04T21:58:44.115Z,7.91
2023-04-04T22:01:10.469Z,7.85
2023-04-04T22:03:40.626Z,7.81
2023-04-04T22:06:07.330Z,7.75
2023-04-04T22:08:33.742Z,7.69
2023-04-04T22:11:02.306Z,7.63
2023-04-04T22:13:33.314Z,7.57
2023-04-04T22:16:01.415Z,7.51
2023-04-04T22:18:33.733Z,7.44
2023-04-04T22:21:04.511Z,7.37
2023-04-04T22:23:37.909Z,7.31
2023-04-04T22:26:05.205Z,7.25
2023-04-04T22:28:37.346Z,7.18
2023-04-04T22:31:04.972Z,7.10
2023-04-04T22:33:33.907Z,7.04
2023-04-04T22:36:01.591Z,6.98
2023-04-04T22:38:29.336Z,6.92
2023-04-04T22:40:57.113Z,6.87
2023-04-04T22:43:25.490Z,6.80
2023-04-04T22:45:53.094Z,6.75
2023-04-04T22:48:22.893Z,6.68
2023-04-04T22:50:55.899Z,6.63
2023-04-04T22:53:25.756Z,6.55
2023-04-04T22:55:53.706Z,6.48
2023-04-04T22:58:21.420Z,6.42
2023-04-04T23:00:47.882Z,6.33
2023-04-04T23:03:14.301Z,6.26
2023-04-04T23:05:41.138Z,6.20
2023-04-04T23:08:07.768Z,6.12
2023-04-04T23:10:34.200Z,6.07
2023-04-04T23:13:00.569Z,6.00
2023-04-04T23:15:27.508Z,5.96
2023-04-04T23:17:53.983Z,5.89
2023-04-04T23:20:20.437Z,5.84
2023-04-04T23:22:46.837Z,5.79
2023-04-04T23:25:13.190Z,5.76
2023-04-04T23:27:40.125Z,5.69
2023-04-04T23:30:07.203Z,5.66
2023-04-04T23:32:33.836Z,5.62
2023-04-04T23:35:00.327Z,5.58
2023-04-04T23:37:26.840Z,5.53
2023-04-04T23:39:53.209Z,5.48
2023-04-04T23:42:19.642Z,5.44
2023-04-04T23:44:46.209Z,5.39
2023-04-04T23:47:12.610Z,5.36
2023-04-04T23:49:39.149Z,5.32
2023-04-04T23:52:06.080Z,5.25
2023-04-04T23:54:32.460Z,5.20
2023-04-04T23:56:58.789Z,5.15
2023-04-04T23:59:25.709Z,5.12
